AEA7014 LEBL-LEAS
Flight info
| Callsign | AEA7014 |
|---|---|
| Flight time | N/A |
| Altitude | 31000 |
| Route | GRAUS M601 BLV M190 RONSI M190 AMAKA |
| Aircraft | B738/M-V/N |
Departure
| Time | N/A |
|---|---|
| Airport | Josep Tarradellas Barcelona-El Prat Airport (LEBL) |
Arrival
| Time | 2026-04-14 16:47 |
|---|---|
| Airport | Asturias Airport (LEAS) |
| Time | Latitude | Longitude | Altitude | Speed | Heading |
|---|---|---|---|---|---|
| 2026-04-14 15:59 | 42.07733 | 0.11420 | 31035 ft | 453 kts | 305° |
| 2026-04-14 15:59 | 42.09146 | 0.07633 | 31036 ft | 453 kts | 304° |
| 2026-04-14 16:00 | 42.11934 | 0.00143 | 31055 ft | 454 kts | 305° |
| 2026-04-14 16:00 | 42.14746 | -0.07435 | 31053 ft | 453 kts | 305° |
| 2026-04-14 16:01 | 42.17556 | -0.15025 | 31054 ft | 453 kts | 305° |
| 2026-04-14 16:01 | 42.20369 | -0.22642 | 31053 ft | 453 kts | 305° |
| 2026-04-14 16:02 | 42.23158 | -0.30217 | 31053 ft | 453 kts | 305° |
| 2026-04-14 16:02 | 42.25961 | -0.37850 | 31052 ft | 453 kts | 305° |
| 2026-04-14 16:03 | 42.28738 | -0.45431 | 31052 ft | 453 kts | 305° |
| 2026-04-14 16:03 | 42.31522 | -0.53054 | 31051 ft | 453 kts | 305° |
| 2026-04-14 16:04 | 42.34296 | -0.60667 | 31051 ft | 453 kts | 305° |
| 2026-04-14 16:04 | 42.36795 | -0.67546 | 31049 ft | 454 kts | 304° |
| 2026-04-14 16:05 | 42.39576 | -0.75219 | 31053 ft | 454 kts | 304° |
| 2026-04-14 16:05 | 42.42327 | -0.82831 | 31086 ft | 452 kts | 304° |
| 2026-04-14 16:06 | 42.45085 | -0.90484 | 31114 ft | 452 kts | 304° |
| 2026-04-14 16:06 | 42.47832 | -0.98123 | 31128 ft | 451 kts | 304° |
| 2026-04-14 16:07 | 42.50574 | -1.05759 | 31129 ft | 448 kts | 303° |
| 2026-04-14 16:07 | 42.53261 | -1.13270 | 31128 ft | 446 kts | 302° |
| 2026-04-14 16:08 | 42.55960 | -1.20839 | 31127 ft | 446 kts | 302° |
| 2026-04-14 16:08 | 42.58643 | -1.28400 | 31145 ft | 446 kts | 302° |
| 2026-04-14 16:09 | 42.61334 | -1.35991 | 31163 ft | 446 kts | 302° |
| 2026-04-14 16:09 | 42.64015 | -1.43570 | 31176 ft | 447 kts | 302° |
| 2026-04-14 16:10 | 42.66696 | -1.51172 | 31178 ft | 447 kts | 302° |
| 2026-04-14 16:10 | 42.69379 | -1.58799 | 31178 ft | 447 kts | 302° |
| 2026-04-14 16:11 | 42.72058 | -1.66439 | 31178 ft | 447 kts | 301° |
| 2026-04-14 16:11 | 42.75059 | -1.73742 | 31204 ft | 442 kts | 307° |
| 2026-04-14 16:12 | 42.78369 | -1.80793 | 31183 ft | 442 kts | 308° |
| 2026-04-14 16:12 | 42.81675 | -1.87830 | 31177 ft | 442 kts | 308° |
| 2026-04-14 16:13 | 42.84969 | -1.94856 | 31178 ft | 442 kts | 308° |
| 2026-04-14 16:13 | 42.88274 | -2.01923 | 31185 ft | 442 kts | 308° |
| 2026-04-14 16:14 | 42.91566 | -2.08964 | 31198 ft | 440 kts | 307° |
| 2026-04-14 16:14 | 42.94824 | -2.15960 | 31211 ft | 439 kts | 306° |
| 2026-04-14 16:15 | 42.98081 | -2.22975 | 31215 ft | 439 kts | 305° |
| 2026-04-14 16:15 | 43.01343 | -2.30017 | 31213 ft | 440 kts | 304° |
| 2026-04-14 16:16 | 43.04628 | -2.37127 | 31208 ft | 442 kts | 304° |
| 2026-04-14 16:16 | 43.07903 | -2.44240 | 31202 ft | 442 kts | 304° |
| 2026-04-14 16:17 | 43.11167 | -2.51338 | 31213 ft | 442 kts | 304° |
| 2026-04-14 16:17 | 43.14435 | -2.58459 | 31220 ft | 441 kts | 304° |
| 2026-04-14 16:18 | 43.17686 | -2.65561 | 31229 ft | 440 kts | 303° |
| 2026-04-14 16:18 | 43.20918 | -2.72640 | 31240 ft | 440 kts | 303° |
| 2026-04-14 16:19 | 43.24166 | -2.79770 | 31239 ft | 440 kts | 303° |
| 2026-04-14 16:19 | 43.27394 | -2.86874 | 31239 ft | 440 kts | 303° |
| 2026-04-14 16:20 | 43.30319 | -2.94183 | 31180 ft | 443 kts | 290° |
| 2026-04-14 16:20 | 43.31794 | -3.02454 | 31243 ft | 446 kts | 285° |
| 2026-04-14 16:21 | 43.33089 | -3.10783 | 31237 ft | 446 kts | 285° |
| 2026-04-14 16:21 | 43.34360 | -3.19089 | 31235 ft | 446 kts | 285° |
| 2026-04-14 16:22 | 43.35626 | -3.27405 | 31168 ft | 448 kts | 285° |
| 2026-04-14 16:22 | 43.36261 | -3.31584 | 30708 ft | 447 kts | 285° |
| 2026-04-14 16:22 | 43.36886 | -3.35719 | 30278 ft | 441 kts | 285° |
| 2026-04-14 16:22 | 43.37508 | -3.39846 | 29836 ft | 436 kts | 285° |
| 2026-04-14 16:23 | 43.38117 | -3.43894 | 29404 ft | 432 kts | 285° |
| 2026-04-14 16:23 | 43.38718 | -3.47900 | 28976 ft | 429 kts | 285° |
| 2026-04-14 16:23 | 43.39310 | -3.51859 | 28550 ft | 427 kts | 284° |
| 2026-04-14 16:23 | 43.39910 | -3.55874 | 28115 ft | 424 kts | 284° |
| 2026-04-14 16:24 | 43.40497 | -3.59816 | 27684 ft | 421 kts | 284° |
| 2026-04-14 16:24 | 43.41079 | -3.63731 | 27255 ft | 417 kts | 284° |
| 2026-04-14 16:24 | 43.41650 | -3.67596 | 26825 ft | 410 kts | 284° |
| 2026-04-14 16:24 | 43.42218 | -3.71435 | 26395 ft | 406 kts | 284° |
| 2026-04-14 16:25 | 43.42771 | -3.75186 | 25976 ft | 404 kts | 284° |
| 2026-04-14 16:25 | 43.43332 | -3.78997 | 25549 ft | 402 kts | 284° |
| 2026-04-14 16:25 | 43.43879 | -3.82723 | 25128 ft | 400 kts | 283° |
| 2026-04-14 16:25 | 43.44428 | -3.86474 | 24700 ft | 397 kts | 283° |
| 2026-04-14 16:26 | 43.44926 | -3.90180 | 24262 ft | 396 kts | 279° |
| 2026-04-14 16:26 | 43.45190 | -3.93898 | 23852 ft | 394 kts | 278° |
| 2026-04-14 16:26 | 43.45430 | -3.97653 | 23422 ft | 392 kts | 277° |
| 2026-04-14 16:26 | 43.45660 | -4.01348 | 22998 ft | 389 kts | 277° |
| 2026-04-14 16:27 | 43.45885 | -4.05026 | 22572 ft | 387 kts | 277° |
| 2026-04-14 16:27 | 43.46107 | -4.08691 | 22145 ft | 384 kts | 277° |
| 2026-04-14 16:27 | 43.46327 | -4.12347 | 21717 ft | 382 kts | 277° |
| 2026-04-14 16:27 | 43.46543 | -4.15963 | 21290 ft | 379 kts | 277° |
| 2026-04-14 16:28 | 43.46757 | -4.19539 | 20865 ft | 377 kts | 277° |
| 2026-04-14 16:28 | 43.46970 | -4.23147 | 20422 ft | 375 kts | 277° |
| 2026-04-14 16:28 | 43.47180 | -4.26702 | 19967 ft | 372 kts | 277° |
| 2026-04-14 16:28 | 43.47387 | -4.30235 | 19513 ft | 370 kts | 277° |
| 2026-04-14 16:29 | 43.47591 | -4.33737 | 19060 ft | 367 kts | 277° |
| 2026-04-14 16:29 | 43.47794 | -4.37238 | 18603 ft | 365 kts | 277° |
| 2026-04-14 16:29 | 43.47994 | -4.40705 | 18148 ft | 362 kts | 277° |
| 2026-04-14 16:29 | 43.48191 | -4.44129 | 17696 ft | 360 kts | 276° |
| 2026-04-14 16:30 | 43.48387 | -4.47569 | 17239 ft | 358 kts | 276° |
| 2026-04-14 16:30 | 43.48579 | -4.50947 | 16787 ft | 356 kts | 276° |
| 2026-04-14 16:30 | 43.48770 | -4.54332 | 16331 ft | 353 kts | 276° |
| 2026-04-14 16:30 | 43.48958 | -4.57679 | 15877 ft | 351 kts | 276° |
| 2026-04-14 16:31 | 43.49145 | -4.61021 | 15420 ft | 349 kts | 276° |
| 2026-04-14 16:31 | 43.49328 | -4.64323 | 14967 ft | 347 kts | 276° |
| 2026-04-14 16:31 | 43.49507 | -4.67558 | 14525 ft | 345 kts | 275° |
| 2026-04-14 16:31 | 43.49689 | -4.70861 | 14069 ft | 340 kts | 275° |
| 2026-04-14 16:32 | 43.49863 | -4.74040 | 13597 ft | 332 kts | 275° |
| 2026-04-14 16:32 | 43.49935 | -4.77163 | 13032 ft | 328 kts | 265° |
| 2026-04-14 16:32 | 43.49519 | -4.80228 | 12527 ft | 322 kts | 261° |
| 2026-04-14 16:32 | 43.49095 | -4.83249 | 12061 ft | 316 kts | 261° |
| 2026-04-14 16:33 | 43.48694 | -4.86178 | 11570 ft | 311 kts | 263° |
| 2026-04-14 16:33 | 43.48643 | -4.89108 | 11044 ft | 306 kts | 271° |
| 2026-04-14 16:33 | 43.48672 | -4.92030 | 10591 ft | 302 kts | 272° |
| 2026-04-14 16:33 | 43.48720 | -4.94888 | 10104 ft | 299 kts | 272° |
| 2026-04-14 16:34 | 43.48770 | -4.97725 | 9609 ft | 298 kts | 272° |
| 2026-04-14 16:34 | 43.48818 | -5.00594 | 9111 ft | 296 kts | 272° |
| 2026-04-14 16:34 | 43.48866 | -5.03392 | 8628 ft | 295 kts | 272° |
| 2026-04-14 16:34 | 43.48902 | -5.06179 | 8222 ft | 290 kts | 272° |
| 2026-04-14 16:35 | 43.48932 | -5.08913 | 8174 ft | 274 kts | 272° |
| 2026-04-14 16:35 | 43.48957 | -5.11456 | 8153 ft | 259 kts | 272° |
| 2026-04-14 16:35 | 43.48982 | -5.13906 | 7932 ft | 259 kts | 272° |
| 2026-04-14 16:35 | 43.49006 | -5.16400 | 7522 ft | 260 kts | 272° |
| 2026-04-14 16:36 | 43.49032 | -5.18870 | 7097 ft | 259 kts | 272° |
| 2026-04-14 16:36 | 43.49050 | -5.21325 | 6673 ft | 258 kts | 272° |
| 2026-04-14 16:36 | 43.49067 | -5.23806 | 6245 ft | 257 kts | 272° |
| 2026-04-14 16:36 | 43.49086 | -5.26241 | 5914 ft | 252 kts | 272° |
| 2026-04-14 16:37 | 43.49104 | -5.28644 | 5577 ft | 250 kts | 272° |
| 2026-04-14 16:37 | 43.49121 | -5.30969 | 5274 ft | 239 kts | 272° |
| 2026-04-14 16:37 | 43.49133 | -5.33303 | 4983 ft | 243 kts | 272° |
| 2026-04-14 16:37 | 43.49145 | -5.35623 | 4674 ft | 244 kts | 272° |
| 2026-04-14 16:38 | 43.49160 | -5.37969 | 4412 ft | 244 kts | 272° |
| 2026-04-14 16:38 | 43.49177 | -5.40270 | 4168 ft | 244 kts | 272° |
| 2026-04-14 16:38 | 43.49195 | -5.42596 | 4030 ft | 244 kts | 272° |
| 2026-04-14 16:38 | 43.49214 | -5.44944 | 4025 ft | 243 kts | 272° |
| 2026-04-14 16:39 | 43.49231 | -5.47278 | 4026 ft | 241 kts | 272° |
| 2026-04-14 16:39 | 43.49248 | -5.49590 | 4022 ft | 243 kts | 272° |
| 2026-04-14 16:39 | 43.49265 | -5.51891 | 4016 ft | 241 kts | 272° |
| 2026-04-14 16:39 | 43.49370 | -5.54203 | 4004 ft | 242 kts | 279° |
| 2026-04-14 16:40 | 43.49562 | -5.56503 | 4012 ft | 240 kts | 278° |
| 2026-04-14 16:40 | 43.49816 | -5.58803 | 4009 ft | 243 kts | 282° |
| 2026-04-14 16:40 | 43.50095 | -5.61105 | 4019 ft | 243 kts | 281° |
| 2026-04-14 16:40 | 43.50367 | -5.63325 | 3990 ft | 224 kts | 282° |
| 2026-04-14 16:41 | 43.50612 | -5.65375 | 3775 ft | 212 kts | 281° |
| 2026-04-14 16:41 | 43.50852 | -5.67371 | 3385 ft | 206 kts | 281° |
| 2026-04-14 16:41 | 43.51085 | -5.69294 | 3134 ft | 207 kts | 281° |
| 2026-04-14 16:41 | 43.51324 | -5.71270 | 2888 ft | 210 kts | 280° |
| 2026-04-14 16:42 | 43.51517 | -5.73258 | 2636 ft | 208 kts | 279° |
| 2026-04-14 16:42 | 43.51708 | -5.75219 | 2389 ft | 208 kts | 279° |
| 2026-04-14 16:42 | 43.51883 | -5.77004 | 2300 ft | 192 kts | 279° |
| 2026-04-14 16:43 | 43.51998 | -5.78193 | 2270 ft | 184 kts | 279° |
| 2026-04-14 16:43 | 43.52166 | -5.79922 | 2296 ft | 183 kts | 279° |
| 2026-04-14 16:43 | 43.52335 | -5.81678 | 2307 ft | 184 kts | 279° |
| 2026-04-14 16:43 | 43.52506 | -5.83442 | 2309 ft | 188 kts | 279° |
| 2026-04-14 16:44 | 43.52675 | -5.85202 | 2305 ft | 187 kts | 279° |
| 2026-04-14 16:44 | 43.52845 | -5.86977 | 2305 ft | 185 kts | 279° |
| 2026-04-14 16:44 | 43.53019 | -5.88753 | 2300 ft | 185 kts | 280° |
| 2026-04-14 16:45 | 43.53593 | -5.91996 | 2158 ft | 167 kts | 289° |
| 2026-04-14 16:45 | 43.53962 | -5.93466 | 1806 ft | 159 kts | 291° |
| 2026-04-14 16:45 | 43.54331 | -5.94895 | 1444 ft | 159 kts | 290° |
| 2026-04-14 16:45 | 43.54674 | -5.96328 | 1372 ft | 157 kts | 288° |
| 2026-04-14 16:46 | 43.54988 | -5.97750 | 1170 ft | 151 kts | 289° |
| 2026-04-14 16:46 | 43.55307 | -5.99084 | 942 ft | 143 kts | 290° |
| 2026-04-14 16:46 | 43.55619 | -6.00354 | 723 ft | 141 kts | 289° |
| 2026-04-14 16:46 | 43.55924 | -6.01642 | 518 ft | 140 kts | 289° |
| 2026-04-14 16:47 | 43.56212 | -6.02847 | 421 ft | 115 kts | 288° |
| 2026-04-14 16:47 | 43.56386 | -6.03627 | 420 ft | 71 kts | 292° |
| 2026-04-14 16:47 | 43.56486 | -6.04224 | 407 ft | 42 kts | 257° |
| 2026-04-14 16:47 | 43.56399 | -6.04314 | 407 ft | 16 kts | 114° |
| 2026-04-14 16:48 | 43.56358 | -6.04148 | 411 ft | 21 kts | 108° |
| 2026-04-14 16:48 | 43.56294 | -6.03889 | 418 ft | 33 kts | 109° |
| 2026-04-14 16:48 | 43.56212 | -6.03541 | 424 ft | 39 kts | 109° |
| 2026-04-14 16:48 | 43.56134 | -6.03236 | 425 ft | 16 kts | 145° |
| 2026-04-14 16:49 | 43.56038 | -6.03235 | 426 ft | 7 kts | 194° |
| 2026-04-14 16:49 | 43.56017 | -6.03264 | 427 ft | 3 kts | 237° |
| 2026-04-14 16:49 | 43.56017 | -6.03266 | 427 ft | 0 kts | 237° |